This is the latest recevied weather packets stored in our database for station/object OK2ZI. If no packets are shown the sender has not sent any weather packets the latest 10 day(s).
| Time | Temp. | Humidity | Pressure | Rain* | Wind** | Luminosity | Snow |
|---|---|---|---|---|---|---|---|
| 1778256846 | 15.56° C | 55% | 1014 hPa | 0 mm | - | - | - |
| 1778256726 | 15.56° C | 55% | 1014 hPa | 0 mm | - | - | - |
| 1778254567 | 16.67° C | 49% | 1014 hPa | 0 mm | - | - | - |
| 1778254326 | 16.11° C | 53% | 1014 hPa | 0 mm | - | - | - |
| 1778253966 | 16.11° C | 55% | 1014 hPa | 0 mm | - | - | - |
| 1778250727 | 16.11° C | 56% | 1014 hPa | 0 mm | - | - | - |
| 1778250011 | 16.11° C | 56% | 1014 hPa | 0 mm | - | - | - |
| 1778249166 | 16.67° C | 56% | 1014 hPa | 0 mm | - | - | - |
| 1778247967 | 16.11° C | 56% | 1014 hPa | 0 mm | - | - | - |
| 1778247727 | 16.67° C | 54% | 1014 hPa | 0 mm | - | - | - |
| 1778247126 | 16.11° C | 54% | 1014 hPa | 0 mm | - | - | - |
| 1778245219 | 16.11° C | 56% | 1014 hPa | 0 mm | - | - | - |
| 1778244487 | 16.67° C | 48% | 1014 hPa | 0 mm | - | - | - |
| 1778243167 | 15.56° C | 53% | 1014 hPa | 0 mm | - | - | - |
| 1778242926 | 16.11° C | 52% | 1014 hPa | 0 mm | - | - | - |
| 1778242448 | 16.67° C | 54% | 1014 hPa | 0 mm | - | - | - |
| 1778242087 | 16.11° C | 55% | 1014 hPa | 0 mm | - | - | - |
| 1778240646 | 15.56° C | 54% | 1014 hPa | 0 mm | - | - | - |
| 1778240527 | 15° C | 55% | 1014 hPa | 0 mm | - | - | - |
| 1778240286 | 15° C | 58% | 1014 hPa | 0 mm | - | - | - |
| 1778240167 | 14.44° C | 58% | 1014 hPa | 0 mm | - | - | - |
| 1778239925 | 15° C | 60% | 1014 hPa | 0 mm | - | - | - |
| 1778239445 | 15° C | 56% | 1014 hPa | 0 mm | - | - | - |
| 1778239211 | 15° C | 55% | 1014 hPa | 0 mm | - | - | - |
| 1778238018 | 14.44° C | 58% | 1014 hPa | 0 mm | - | - | - |
* Rain latest hour (hover to see other rain measurements)
** Current wind speed in m/s (hover to see current wind gust speed)